sensor_id;sensor_type;location;lat;lon;timestamp;temperature;humidity
3564;DHT22;1796;52.388;13.096;2022-12-10T00:01:42;-1.10;99.90
3564;DHT22;1796;52.388;13.096;2022-12-10T00:04:09;-1.10;99.90
3564;DHT22;1796;52.388;13.096;2022-12-10T00:06:37;-1.20;99.90
3564;DHT22;1796;52.388;13.096;2022-12-10T00:09:06;-1.30;99.90
3564;DHT22;1796;52.388;13.096;2022-12-10T00:11:34;-1.20;99.90
3564;DHT22;1796;52.388;13.096;2022-12-10T00:14:01;-1.30;99.90
3564;DHT22;1796;52.388;13.096;2022-12-10T00:16:29;-1.20;99.90
3564;DHT22;1796;52.388;13.096;2022-12-10T00:18:59;-1.20;99.90
3564;DHT22;1796;52.388;13.096;2022-12-10T00:21:28;-1.20;99.90
3564;DHT22;1796;52.388;13.096;2022-12-10T00:23:56;-1.10;99.90
3564;DHT22;1796;52.388;13.096;2022-12-10T00:26:24;-1.20;99.90
3564;DHT22;1796;52.388;13.096;2022-12-10T00:28:52;-1.30;99.90
3564;DHT22;1796;52.388;13.096;2022-12-10T00:31:21;-1.30;99.90
3564;DHT22;1796;52.388;13.096;2022-12-10T00:33:49;-1.30;99.90
3564;DHT22;1796;52.388;13.096;2022-12-10T00:36:19;-1.30;99.90
3564;DHT22;1796;52.388;13.096;2022-12-10T00:38:48;-1.30;99.90
3564;DHT22;1796;52.388;13.096;2022-12-10T00:41:16;-1.30;99.90
3564;DHT22;1796;52.388;13.096;2022-12-10T00:43:43;-1.30;99.90
3564;DHT22;1796;52.388;13.096;2022-12-10T00:46:11;-1.30;99.90
3564;DHT22;1796;52.388;13.096;2022-12-10T00:48:39;-1.30;99.90
3564;DHT22;1796;52.388;13.096;2022-12-10T00:51:09;-1.40;99.90
3564;DHT22;1796;52.388;13.096;2022-12-10T00:53:37;-1.40;99.90
3564;DHT22;1796;52.388;13.096;2022-12-10T00:56:07;-1.40;99.90
3564;DHT22;1796;52.388;13.096;2022-12-10T00:58:36;-1.40;99.90
3564;DHT22;1796;52.388;13.096;2022-12-10T01:01:10;-1.50;99.90
3564;DHT22;1796;52.388;13.096;2022-12-10T01:03:38;-1.50;99.90
3564;DHT22;1796;52.388;13.096;2022-12-10T01:06:12;-1.50;99.90
3564;DHT22;1796;52.388;13.096;2022-12-10T01:08:39;-1.50;99.90
3564;DHT22;1796;52.388;13.096;2022-12-10T01:11:07;-1.60;99.90
3564;DHT22;1796;52.388;13.096;2022-12-10T01:13:35;-1.60;99.90
3564;DHT22;1796;52.388;13.096;2022-12-10T01:16:02;-1.60;99.90
3564;DHT22;1796;52.388;13.096;2022-12-10T01:18:29;-1.60;99.90
3564;DHT22;1796;52.388;13.096;2022-12-10T01:21:00;-1.60;99.90
3564;DHT22;1796;52.388;13.096;2022-12-10T01:23:31;-1.60;99.90
3564;DHT22;1796;52.388;13.096;2022-12-10T01:26:00;-1.60;99.90
3564;DHT22;1796;52.388;13.096;2022-12-10T01:28:29;-1.60;99.90
3564;DHT22;1796;52.388;13.096;2022-12-10T01:31:00;-1.60;99.90
3564;DHT22;1796;52.388;13.096;2022-12-10T01:33:27;-1.60;99.90
3564;DHT22;1796;52.388;13.096;2022-12-10T01:35:53;-1.70;99.90
3564;DHT22;1796;52.388;13.096;2022-12-10T01:38:20;-1.70;99.90
3564;DHT22;1796;52.388;13.096;2022-12-10T01:40:49;-1.70;99.90
3564;DHT22;1796;52.388;13.096;2022-12-10T01:43:16;-1.70;99.90
3564;DHT22;1796;52.388;13.096;2022-12-10T01:45:42;-1.70;99.90
3564;DHT22;1796;52.388;13.096;2022-12-10T01:48:09;-1.70;99.90
3564;DHT22;1796;52.388;13.096;2022-12-10T01:50:37;-1.70;99.90
3564;DHT22;1796;52.388;13.096;2022-12-10T01:53:04;-1.70;99.90
3564;DHT22;1796;52.388;13.096;2022-12-10T01:55:45;-1.70;99.90
3564;DHT22;1796;52.388;13.096;2022-12-10T01:58:16;-1.70;99.90
3564;DHT22;1796;52.388;13.096;2022-12-10T02:01:03;-1.70;99.90
3564;DHT22;1796;52.388;13.096;2022-12-10T02:03:37;-1.70;99.90
3564;DHT22;1796;52.388;13.096;2022-12-10T02:06:13;-1.60;99.90
3564;DHT22;1796;52.388;13.096;2022-12-10T02:08:50;-1.60;99.90
3564;DHT22;1796;52.388;13.096;2022-12-10T02:11:28;-1.60;99.90
3564;DHT22;1796;52.388;13.096;2022-12-10T02:14:02;-1.60;99.90
3564;DHT22;1796;52.388;13.096;2022-12-10T02:16:31;-1.60;99.90
3564;DHT22;1796;52.388;13.096;2022-12-10T02:19:09;-1.60;99.90
3564;DHT22;1796;52.388;13.096;2022-12-10T02:21:42;-1.60;99.90
3564;DHT22;1796;52.388;13.096;2022-12-10T02:24:14;-1.60;99.90
3564;DHT22;1796;52.388;13.096;2022-12-10T02:26:47;-1.60;99.90
3564;DHT22;1796;52.388;13.096;2022-12-10T02:29:19;-1.70;99.90
3564;DHT22;1796;52.388;13.096;2022-12-10T02:31:48;-1.70;99.90
3564;DHT22;1796;52.388;13.096;2022-12-10T02:34:18;-1.70;99.90
3564;DHT22;1796;52.388;13.096;2022-12-10T02:36:47;-1.60;99.90
3564;DHT22;1796;52.388;13.096;2022-12-10T02:39:20;-1.70;99.90
3564;DHT22;1796;52.388;13.096;2022-12-10T02:41:53;-1.70;99.90
3564;DHT22;1796;52.388;13.096;2022-12-10T02:44:23;-1.70;99.90
3564;DHT22;1796;52.388;13.096;2022-12-10T02:46:53;-1.70;99.90
3564;DHT22;1796;52.388;13.096;2022-12-10T02:49:21;-1.80;99.90
3564;DHT22;1796;52.388;13.096;2022-12-10T02:51:48;-1.70;99.90
3564;DHT22;1796;52.388;13.096;2022-12-10T02:54:36;-1.70;99.90
3564;DHT22;1796;52.388;13.096;2022-12-10T02:57:15;-1.70;99.90
3564;DHT22;1796;52.388;13.096;2022-12-10T03:00:00;-1.60;99.90
3564;DHT22;1796;52.388;13.096;2022-12-10T03:02:34;-1.60;99.90
3564;DHT22;1796;52.388;13.096;2022-12-10T03:05:09;-1.60;99.90
3564;DHT22;1796;52.388;13.096;2022-12-10T03:07:42;-1.60;99.90
3564;DHT22;1796;52.388;13.096;2022-12-10T03:10:14;-1.50;99.90
3564;DHT22;1796;52.388;13.096;2022-12-10T03:12:48;-1.60;99.90
3564;DHT22;1796;52.388;13.096;2022-12-10T03:15:19;-1.40;99.90
3564;DHT22;1796;52.388;13.096;2022-12-10T03:17:48;-1.50;99.90
3564;DHT22;1796;52.388;13.096;2022-12-10T03:20:17;-1.60;99.90
3564;DHT22;1796;52.388;13.096;2022-12-10T03:22:46;-1.60;99.90
3564;DHT22;1796;52.388;13.096;2022-12-10T03:25:16;-1.50;99.90
3564;DHT22;1796;52.388;13.096;2022-12-10T03:27:45;-1.50;99.90
3564;DHT22;1796;52.388;13.096;2022-12-10T03:30:15;-1.50;99.90
3564;DHT22;1796;52.388;13.096;2022-12-10T03:32:44;-1.50;99.90
3564;DHT22;1796;52.388;13.096;2022-12-10T03:35:12;-1.60;99.90
3564;DHT22;1796;52.388;13.096;2022-12-10T03:37:40;-1.50;99.90
3564;DHT22;1796;52.388;13.096;2022-12-10T03:40:08;-1.50;99.90
3564;DHT22;1796;52.388;13.096;2022-12-10T03:42:37;-1.50;99.90
3564;DHT22;1796;52.388;13.096;2022-12-10T03:45:06;-1.50;99.90
3564;DHT22;1796;52.388;13.096;2022-12-10T03:47:33;-1.50;99.90
3564;DHT22;1796;52.388;13.096;2022-12-10T03:50:01;-1.50;99.90
3564;DHT22;1796;52.388;13.096;2022-12-10T03:52:28;-1.50;99.90
3564;DHT22;1796;52.388;13.096;2022-12-10T03:54:55;-1.50;99.90
3564;DHT22;1796;52.388;13.096;2022-12-10T03:57:22;-1.50;99.90
3564;DHT22;1796;52.388;13.096;2022-12-10T03:59:49;-1.50;99.90
3564;DHT22;1796;52.388;13.096;2022-12-10T04:02:16;-1.50;99.90
3564;DHT22;1796;52.388;13.096;2022-12-10T04:04:43;-1.60;99.90
3564;DHT22;1796;52.388;13.096;2022-12-10T04:07:12;-1.60;99.90
3564;DHT22;1796;52.388;13.096;2022-12-10T04:09:39;-1.60;99.90
3564;DHT22;1796;52.388;13.096;2022-12-10T04:12:06;-1.50;99.90
3564;DHT22;1796;52.388;13.096;2022-12-10T04:14:33;-1.60;99.90
3564;DHT22;1796;52.388;13.096;2022-12-10T04:17:16;-1.50;99.90
3564;DHT22;1796;52.388;13.096;2022-12-10T04:19:43;-1.60;99.90
3564;DHT22;1796;52.388;13.096;2022-12-10T04:22:11;-1.60;99.90
3564;DHT22;1796;52.388;13.096;2022-12-10T04:24:56;-1.50;99.90
3564;DHT22;1796;52.388;13.096;2022-12-10T04:27:40;-1.60;99.90
3564;DHT22;1796;52.388;13.096;2022-12-10T04:30:11;-1.60;99.90
3564;DHT22;1796;52.388;13.096;2022-12-10T04:32:38;-1.50;99.90
3564;DHT22;1796;52.388;13.096;2022-12-10T04:35:06;-1.50;99.90
3564;DHT22;1796;52.388;13.096;2022-12-10T04:37:35;-1.60;99.90
3564;DHT22;1796;52.388;13.096;2022-12-10T04:40:02;-1.60;99.90
3564;DHT22;1796;52.388;13.096;2022-12-10T04:42:29;-1.60;99.90
3564;DHT22;1796;52.388;13.096;2022-12-10T04:44:56;-1.60;99.90
3564;DHT22;1796;52.388;13.096;2022-12-10T04:47:23;-1.70;99.90
3564;DHT22;1796;52.388;13.096;2022-12-10T04:49:50;-1.60;99.90
3564;DHT22;1796;52.388;13.096;2022-12-10T04:52:17;-1.60;99.90
3564;DHT22;1796;52.388;13.096;2022-12-10T04:54:45;-1.70;99.90
3564;DHT22;1796;52.388;13.096;2022-12-10T04:57:12;-1.70;99.90
3564;DHT22;1796;52.388;13.096;2022-12-10T04:59:39;-1.60;99.90
3564;DHT22;1796;52.388;13.096;2022-12-10T05:02:06;-1.60;99.90
3564;DHT22;1796;52.388;13.096;2022-12-10T05:04:33;-1.70;99.90
3564;DHT22;1796;52.388;13.096;2022-12-10T05:07:00;-1.70;99.90
3564;DHT22;1796;52.388;13.096;2022-12-10T05:09:27;-1.60;99.90
3564;DHT22;1796;52.388;13.096;2022-12-10T05:11:55;-1.70;99.90
3564;DHT22;1796;52.388;13.096;2022-12-10T05:14:22;-1.60;99.90
3564;DHT22;1796;52.388;13.096;2022-12-10T05:16:50;-1.70;99.90
3564;DHT22;1796;52.388;13.096;2022-12-10T05:19:17;-1.70;99.90
3564;DHT22;1796;52.388;13.096;2022-12-10T05:21:47;-1.70;99.90
3564;DHT22;1796;52.388;13.096;2022-12-10T05:24:32;-1.60;99.90
3564;DHT22;1796;52.388;13.096;2022-12-10T05:27:00;-1.60;99.90
3564;DHT22;1796;52.388;13.096;2022-12-10T05:29:27;-1.60;99.90
3564;DHT22;1796;52.388;13.096;2022-12-10T05:31:54;-1.50;99.90
3564;DHT22;1796;52.388;13.096;2022-12-10T05:34:21;-1.50;99.90
3564;DHT22;1796;52.388;13.096;2022-12-10T05:36:48;-1.50;99.90
3564;DHT22;1796;52.388;13.096;2022-12-10T05:39:15;-1.50;99.90
3564;DHT22;1796;52.388;13.096;2022-12-10T05:41:42;-1.50;99.90
3564;DHT22;1796;52.388;13.096;2022-12-10T05:44:10;-1.50;99.90
3564;DHT22;1796;52.388;13.096;2022-12-10T05:46:38;-1.50;99.90
3564;DHT22;1796;52.388;13.096;2022-12-10T05:49:05;-1.50;99.90
3564;DHT22;1796;52.388;13.096;2022-12-10T05:51:34;-1.50;99.90
3564;DHT22;1796;52.388;13.096;2022-12-10T05:54:04;-1.60;99.90
3564;DHT22;1796;52.388;13.096;2022-12-10T05:56:31;-1.60;99.90
3564;DHT22;1796;52.388;13.096;2022-12-10T05:58:59;-1.60;99.90
3564;DHT22;1796;52.388;13.096;2022-12-10T06:01:29;-1.60;99.90
3564;DHT22;1796;52.388;13.096;2022-12-10T06:03:58;-1.60;99.90
3564;DHT22;1796;52.388;13.096;2022-12-10T06:06:26;-1.60;99.90
3564;DHT22;1796;52.388;13.096;2022-12-10T06:08:54;-1.60;99.90
3564;DHT22;1796;52.388;13.096;2022-12-10T06:11:22;-1.60;99.90
3564;DHT22;1796;52.388;13.096;2022-12-10T06:13:49;-1.70;99.90
3564;DHT22;1796;52.388;13.096;2022-12-10T06:16:16;-1.70;99.90
3564;DHT22;1796;52.388;13.096;2022-12-10T06:18:44;-1.60;99.90
3564;DHT22;1796;52.388;13.096;2022-12-10T06:21:14;-1.70;99.90
3564;DHT22;1796;52.388;13.096;2022-12-10T06:23:42;-1.70;99.90
3564;DHT22;1796;52.388;13.096;2022-12-10T06:26:10;-1.70;99.90
3564;DHT22;1796;52.388;13.096;2022-12-10T06:28:38;-1.60;99.90
3564;DHT22;1796;52.388;13.096;2022-12-10T06:31:06;-1.70;99.90
3564;DHT22;1796;52.388;13.096;2022-12-10T06:33:33;-1.60;99.90
3564;DHT22;1796;52.388;13.096;2022-12-10T06:36:03;-1.70;99.90
3564;DHT22;1796;52.388;13.096;2022-12-10T06:38:30;-1.70;99.90
3564;DHT22;1796;52.388;13.096;2022-12-10T06:40:57;-1.70;99.90
3564;DHT22;1796;52.388;13.096;2022-12-10T06:43:23;-1.70;99.90
3564;DHT22;1796;52.388;13.096;2022-12-10T06:45:50;-1.80;99.90
3564;DHT22;1796;52.388;13.096;2022-12-10T06:48:17;-1.80;99.90
3564;DHT22;1796;52.388;13.096;2022-12-10T06:50:44;-1.80;99.90
3564;DHT22;1796;52.388;13.096;2022-12-10T06:53:12;-1.80;99.90
3564;DHT22;1796;52.388;13.096;2022-12-10T06:55:39;-1.70;99.90
3564;DHT22;1796;52.388;13.096;2022-12-10T06:58:06;-1.80;99.90
3564;DHT22;1796;52.388;13.096;2022-12-10T07:00:33;-1.70;99.90
3564;DHT22;1796;52.388;13.096;2022-12-10T07:03:00;-1.70;99.90
3564;DHT22;1796;52.388;13.096;2022-12-10T07:05:27;-1.70;99.90
3564;DHT22;1796;52.388;13.096;2022-12-10T07:07:53;-1.70;99.90
3564;DHT22;1796;52.388;13.096;2022-12-10T07:10:22;-1.80;99.90
3564;DHT22;1796;52.388;13.096;2022-12-10T07:12:48;-1.80;99.90
3564;DHT22;1796;52.388;13.096;2022-12-10T07:15:15;-1.70;99.90
3564;DHT22;1796;52.388;13.096;2022-12-10T07:17:42;-1.70;99.90
3564;DHT22;1796;52.388;13.096;2022-12-10T07:20:10;-1.60;99.90
3564;DHT22;1796;52.388;13.096;2022-12-10T07:22:38;-1.70;99.90
3564;DHT22;1796;52.388;13.096;2022-12-10T07:25:05;-1.70;99.90
3564;DHT22;1796;52.388;13.096;2022-12-10T07:27:34;-1.70;99.90
3564;DHT22;1796;52.388;13.096;2022-12-10T07:30:00;-1.70;99.90
3564;DHT22;1796;52.388;13.096;2022-12-10T07:32:27;-1.70;99.90
3564;DHT22;1796;52.388;13.096;2022-12-10T07:34:54;-1.70;99.90
3564;DHT22;1796;52.388;13.096;2022-12-10T07:37:21;-1.70;99.90
3564;DHT22;1796;52.388;13.096;2022-12-10T07:39:48;-1.70;99.90
3564;DHT22;1796;52.388;13.096;2022-12-10T07:42:15;-1.70;99.90
3564;DHT22;1796;52.388;13.096;2022-12-10T07:44:43;-1.70;99.90
3564;DHT22;1796;52.388;13.096;2022-12-10T07:47:10;-1.70;99.90
3564;DHT22;1796;52.388;13.096;2022-12-10T07:49:38;-1.70;99.90
3564;DHT22;1796;52.388;13.096;2022-12-10T07:52:05;-1.70;99.90
3564;DHT22;1796;52.388;13.096;2022-12-10T07:54:32;-1.60;99.90
3564;DHT22;1796;52.388;13.096;2022-12-10T07:56:58;-1.60;99.90
3564;DHT22;1796;52.388;13.096;2022-12-10T07:59:25;-1.60;99.90
3564;DHT22;1796;52.388;13.096;2022-12-10T08:01:53;-1.60;99.90
3564;DHT22;1796;52.388;13.096;2022-12-10T08:04:20;-1.60;99.90
3564;DHT22;1796;52.388;13.096;2022-12-10T08:06:47;-1.50;99.90
3564;DHT22;1796;52.388;13.096;2022-12-10T08:09:14;-1.50;99.90
3564;DHT22;1796;52.388;13.096;2022-12-10T08:11:41;-1.50;99.90
3564;DHT22;1796;52.388;13.096;2022-12-10T08:14:08;-1.60;99.90
3564;DHT22;1796;52.388;13.096;2022-12-10T08:16:35;-1.50;99.90
3564;DHT22;1796;52.388;13.096;2022-12-10T08:19:03;-1.40;99.90
3564;DHT22;1796;52.388;13.096;2022-12-10T08:21:31;-1.50;99.90
3564;DHT22;1796;52.388;13.096;2022-12-10T08:23:59;-1.50;99.90
3564;DHT22;1796;52.388;13.096;2022-12-10T08:26:28;-1.50;99.90
3564;DHT22;1796;52.388;13.096;2022-12-10T08:28:57;-1.50;99.90
3564;DHT22;1796;52.388;13.096;2022-12-10T08:31:25;-1.50;99.90
3564;DHT22;1796;52.388;13.096;2022-12-10T08:33:53;-1.50;99.90
3564;DHT22;1796;52.388;13.096;2022-12-10T08:36:21;-1.40;99.90
3564;DHT22;1796;52.388;13.096;2022-12-10T08:38:48;-1.40;99.90
3564;DHT22;1796;52.388;13.096;2022-12-10T08:41:17;-1.40;99.90
3564;DHT22;1796;52.388;13.096;2022-12-10T08:43:45;-1.30;99.90
3564;DHT22;1796;52.388;13.096;2022-12-10T08:46:12;-1.30;99.90
3564;DHT22;1796;52.388;13.096;2022-12-10T08:48:40;-1.30;99.90
3564;DHT22;1796;52.388;13.096;2022-12-10T08:51:10;-1.30;99.90
3564;DHT22;1796;52.388;13.096;2022-12-10T08:53:38;-1.30;99.90
3564;DHT22;1796;52.388;13.096;2022-12-10T08:56:06;-1.30;99.90
3564;DHT22;1796;52.388;13.096;2022-12-10T08:58:33;-1.30;99.90
3564;DHT22;1796;52.388;13.096;2022-12-10T09:01:00;-1.30;99.90
3564;DHT22;1796;52.388;13.096;2022-12-10T09:03:31;-1.30;99.90
3564;DHT22;1796;52.388;13.096;2022-12-10T09:06:02;-1.30;99.90
3564;DHT22;1796;52.388;13.096;2022-12-10T09:08:29;-1.20;99.90
3564;DHT22;1796;52.388;13.096;2022-12-10T09:10:57;-1.20;99.90
3564;DHT22;1796;52.388;13.096;2022-12-10T09:13:24;-1.10;99.90
3564;DHT22;1796;52.388;13.096;2022-12-10T09:15:51;-1.10;99.90
3564;DHT22;1796;52.388;13.096;2022-12-10T09:18:19;-1.10;99.90
3564;DHT22;1796;52.388;13.096;2022-12-10T09:20:46;-1.20;99.90
3564;DHT22;1796;52.388;13.096;2022-12-10T09:23:12;-1.20;99.90
3564;DHT22;1796;52.388;13.096;2022-12-10T09:25:40;-1.20;99.90
3564;DHT22;1796;52.388;13.096;2022-12-10T09:28:09;-1.10;99.90
3564;DHT22;1796;52.388;13.096;2022-12-10T09:30:35;-1.10;99.90
3564;DHT22;1796;52.388;13.096;2022-12-10T09:33:03;-1.10;99.90
3564;DHT22;1796;52.388;13.096;2022-12-10T09:35:29;-1.10;99.90
3564;DHT22;1796;52.388;13.096;2022-12-10T09:37:57;-1.20;99.90
3564;DHT22;1796;52.388;13.096;2022-12-10T09:40:31;-1.20;99.90
3564;DHT22;1796;52.388;13.096;2022-12-10T09:43:04;-1.20;99.90
3564;DHT22;1796;52.388;13.096;2022-12-10T09:45:42;-1.20;99.90
3564;DHT22;1796;52.388;13.096;2022-12-10T09:48:18;-1.20;99.90
3564;DHT22;1796;52.388;13.096;2022-12-10T09:50:53;-1.10;99.90
3564;DHT22;1796;52.388;13.096;2022-12-10T09:53:22;-1.10;99.90
3564;DHT22;1796;52.388;13.096;2022-12-10T09:55:50;-1.10;99.90
3564;DHT22;1796;52.388;13.096;2022-12-10T09:58:19;-1.00;99.90
3564;DHT22;1796;52.388;13.096;2022-12-10T10:00:52;-1.00;99.90
3564;DHT22;1796;52.388;13.096;2022-12-10T10:03:20;-1.00;99.90
3564;DHT22;1796;52.388;13.096;2022-12-10T10:05:49;-0.90;99.90
3564;DHT22;1796;52.388;13.096;2022-12-10T10:08:25;-0.80;99.90
3564;DHT22;1796;52.388;13.096;2022-12-10T10:10:54;-0.70;99.90
3564;DHT22;1796;52.388;13.096;2022-12-10T10:13:29;-0.80;99.90
3564;DHT22;1796;52.388;13.096;2022-12-10T10:16:10;-0.80;99.90
3564;DHT22;1796;52.388;13.096;2022-12-10T10:18:41;-0.70;99.90
3564;DHT22;1796;52.388;13.096;2022-12-10T10:21:16;-0.70;99.90
3564;DHT22;1796;52.388;13.096;2022-12-10T10:23:47;-0.60;99.90
3564;DHT22;1796;52.388;13.096;2022-12-10T10:26:14;-0.70;99.90
3564;DHT22;1796;52.388;13.096;2022-12-10T10:28:41;-0.70;99.90
3564;DHT22;1796;52.388;13.096;2022-12-10T10:31:18;-0.70;99.90
3564;DHT22;1796;52.388;13.096;2022-12-10T10:33:51;-0.80;99.90
3564;DHT22;1796;52.388;13.096;2022-12-10T10:36:24;-0.80;99.90
3564;DHT22;1796;52.388;13.096;2022-12-10T10:38:51;-0.80;99.90
3564;DHT22;1796;52.388;13.096;2022-12-10T10:41:18;-0.80;99.90
3564;DHT22;1796;52.388;13.096;2022-12-10T10:43:46;-0.70;99.90
3564;DHT22;1796;52.388;13.096;2022-12-10T10:46:17;-0.70;99.90
3564;DHT22;1796;52.388;13.096;2022-12-10T10:48:47;-0.80;99.90
3564;DHT22;1796;52.388;13.096;2022-12-10T10:51:19;-0.70;99.90
3564;DHT22;1796;52.388;13.096;2022-12-10T10:53:47;-0.70;99.90
3564;DHT22;1796;52.388;13.096;2022-12-10T10:56:17;-0.80;99.90
3564;DHT22;1796;52.388;13.096;2022-12-10T10:58:51;-0.80;99.90
3564;DHT22;1796;52.388;13.096;2022-12-10T11:01:20;-0.80;99.90
3564;DHT22;1796;52.388;13.096;2022-12-10T11:03:49;-0.80;99.90
3564;DHT22;1796;52.388;13.096;2022-12-10T11:06:20;-0.80;99.90
3564;DHT22;1796;52.388;13.096;2022-12-10T11:08:47;-0.60;99.90
3564;DHT22;1796;52.388;13.096;2022-12-10T11:11:18;-0.50;99.90
3564;DHT22;1796;52.388;13.096;2022-12-10T11:13:46;-0.60;99.90
3564;DHT22;1796;52.388;13.096;2022-12-10T11:16:18;-0.50;99.90
3564;DHT22;1796;52.388;13.096;2022-12-10T11:18:55;-0.40;99.90
3564;DHT22;1796;52.388;13.096;2022-12-10T11:21:23;-0.50;99.90
3564;DHT22;1796;52.388;13.096;2022-12-10T11:23:53;-0.50;99.90
3564;DHT22;1796;52.388;13.096;2022-12-10T11:29:29;-0.40;99.90
3564;DHT22;1796;52.388;13.096;2022-12-10T11:32:07;-0.30;99.90
3564;DHT22;1796;52.388;13.096;2022-12-10T11:34:46;-0.30;99.90
3564;DHT22;1796;52.388;13.096;2022-12-10T11:37:25;-0.30;99.90
3564;DHT22;1796;52.388;13.096;2022-12-10T11:40:15;-0.40;99.90
3564;DHT22;1796;52.388;13.096;2022-12-10T11:42:54;-0.30;99.90
3564;DHT22;1796;52.388;13.096;2022-12-10T11:45:29;-0.10;99.90
3564;DHT22;1796;52.388;13.096;2022-12-10T11:48:13;-0.30;99.90
3564;DHT22;1796;52.388;13.096;2022-12-10T11:50:48;-0.20;99.90
3564;DHT22;1796;52.388;13.096;2022-12-10T11:53:30;-0.30;99.90
3564;DHT22;1796;52.388;13.096;2022-12-10T11:56:08;-0.60;99.90
3564;DHT22;1796;52.388;13.096;2022-12-10T11:58:53;-0.70;99.90
3564;DHT22;1796;52.388;13.096;2022-12-10T12:01:30;-0.70;99.90
3564;DHT22;1796;52.388;13.096;2022-12-10T12:04:20;-0.60;99.90
3564;DHT22;1796;52.388;13.096;2022-12-10T12:07:08;-0.50;99.90
3564;DHT22;1796;52.388;13.096;2022-12-10T12:09:45;-0.40;99.90
3564;DHT22;1796;52.388;13.096;2022-12-10T12:12:24;-0.40;99.90
3564;DHT22;1796;52.388;13.096;2022-12-10T12:14:56;-0.30;99.90
3564;DHT22;1796;52.388;13.096;2022-12-10T12:17:27;-0.30;99.90
3564;DHT22;1796;52.388;13.096;2022-12-10T12:19:59;-0.50;99.90
3564;DHT22;1796;52.388;13.096;2022-12-10T12:22:31;-0.50;99.90
3564;DHT22;1796;52.388;13.096;2022-12-10T12:25:02;-0.50;99.90
3564;DHT22;1796;52.388;13.096;2022-12-10T12:27:35;-0.50;99.90
3564;DHT22;1796;52.388;13.096;2022-12-10T12:30:05;-0.40;99.90
3564;DHT22;1796;52.388;13.096;2022-12-10T12:32:46;-0.40;99.90
3564;DHT22;1796;52.388;13.096;2022-12-10T12:35:17;-0.40;99.90
3564;DHT22;1796;52.388;13.096;2022-12-10T12:37:51;-0.60;99.90
3564;DHT22;1796;52.388;13.096;2022-12-10T12:40:27;-0.60;99.90
3564;DHT22;1796;52.388;13.096;2022-12-10T12:42:58;-0.60;99.90
3564;DHT22;1796;52.388;13.096;2022-12-10T12:45:32;-0.50;99.90
3564;DHT22;1796;52.388;13.096;2022-12-10T12:48:06;-0.50;99.90
3564;DHT22;1796;52.388;13.096;2022-12-10T12:50:42;-0.40;99.90
3564;DHT22;1796;52.388;13.096;2022-12-10T12:53:12;-0.40;99.90
3564;DHT22;1796;52.388;13.096;2022-12-10T12:55:45;-0.40;99.90
3564;DHT22;1796;52.388;13.096;2022-12-10T12:58:24;-0.30;99.90
3564;DHT22;1796;52.388;13.096;2022-12-10T13:00:56;-0.50;99.90
3564;DHT22;1796;52.388;13.096;2022-12-10T13:03:33;-0.50;99.90
3564;DHT22;1796;52.388;13.096;2022-12-10T13:06:17;-0.40;99.90
3564;DHT22;1796;52.388;13.096;2022-12-10T13:08:47;-0.50;99.90
3564;DHT22;1796;52.388;13.096;2022-12-10T13:11:27;-0.30;99.90
3564;DHT22;1796;52.388;13.096;2022-12-10T13:14:29;-0.30;99.90
3564;DHT22;1796;52.388;13.096;2022-12-10T13:19:43;-0.20;99.90
3564;DHT22;1796;52.388;13.096;2022-12-10T13:22:11;-0.20;99.90
3564;DHT22;1796;52.388;13.096;2022-12-10T13:27:54;-0.30;99.90
3564;DHT22;1796;52.388;13.096;2022-12-10T13:30:32;-0.40;99.90
3564;DHT22;1796;52.388;13.096;2022-12-10T13:33:10;-0.50;99.90
3564;DHT22;1796;52.388;13.096;2022-12-10T13:35:51;-0.50;99.90
3564;DHT22;1796;52.388;13.096;2022-12-10T13:38:23;-0.50;99.90
3564;DHT22;1796;52.388;13.096;2022-12-10T13:41:02;-0.50;99.90
3564;DHT22;1796;52.388;13.096;2022-12-10T13:43:57;-0.40;99.90
3564;DHT22;1796;52.388;13.096;2022-12-10T13:46:56;-0.40;99.90
3564;DHT22;1796;52.388;13.096;2022-12-10T13:49:25;-0.40;99.90
3564;DHT22;1796;52.388;13.096;2022-12-10T13:51:59;-0.40;99.90
3564;DHT22;1796;52.388;13.096;2022-12-10T13:57:44;-0.50;99.90
3564;DHT22;1796;52.388;13.096;2022-12-10T14:00:19;-0.50;99.90
3564;DHT22;1796;52.388;13.096;2022-12-10T14:03:20;-0.60;99.90
3564;DHT22;1796;52.388;13.096;2022-12-10T14:06:15;-0.70;99.90
3564;DHT22;1796;52.388;13.096;2022-12-10T14:08:52;-0.60;99.90
3564;DHT22;1796;52.388;13.096;2022-12-10T14:11:21;-0.60;99.90
3564;DHT22;1796;52.388;13.096;2022-12-10T14:13:52;-0.60;99.90
3564;DHT22;1796;52.388;13.096;2022-12-10T14:16:22;-0.50;99.90
3564;DHT22;1796;52.388;13.096;2022-12-10T14:18:53;-0.50;99.90
3564;DHT22;1796;52.388;13.096;2022-12-10T14:21:22;-0.50;99.90
3564;DHT22;1796;52.388;13.096;2022-12-10T14:23:50;-0.60;99.90
3564;DHT22;1796;52.388;13.096;2022-12-10T14:26:19;-0.50;99.90
3564;DHT22;1796;52.388;13.096;2022-12-10T14:28:48;-0.50;99.90
3564;DHT22;1796;52.388;13.096;2022-12-10T14:31:17;-0.50;99.90
3564;DHT22;1796;52.388;13.096;2022-12-10T14:33:48;-0.60;99.90
3564;DHT22;1796;52.388;13.096;2022-12-10T14:36:20;-0.60;99.90
3564;DHT22;1796;52.388;13.096;2022-12-10T14:38:49;-0.60;99.90
3564;DHT22;1796;52.388;13.096;2022-12-10T14:41:20;-0.60;99.90
3564;DHT22;1796;52.388;13.096;2022-12-10T14:43:49;-0.60;99.90
3564;DHT22;1796;52.388;13.096;2022-12-10T14:46:19;-0.60;99.90
3564;DHT22;1796;52.388;13.096;2022-12-10T14:48:50;-0.60;99.90
3564;DHT22;1796;52.388;13.096;2022-12-10T14:51:19;-0.70;99.90
3564;DHT22;1796;52.388;13.096;2022-12-10T14:53:48;-0.60;99.90
3564;DHT22;1796;52.388;13.096;2022-12-10T14:56:20;-0.60;99.90
3564;DHT22;1796;52.388;13.096;2022-12-10T14:58:52;-0.60;99.90
3564;DHT22;1796;52.388;13.096;2022-12-10T15:01:25;-0.70;99.90
3564;DHT22;1796;52.388;13.096;2022-12-10T15:03:55;-0.70;99.90
3564;DHT22;1796;52.388;13.096;2022-12-10T15:06:23;-0.70;99.90
3564;DHT22;1796;52.388;13.096;2022-12-10T15:08:54;-0.70;99.90
3564;DHT22;1796;52.388;13.096;2022-12-10T15:11:24;-0.80;99.90
3564;DHT22;1796;52.388;13.096;2022-12-10T15:13:54;-0.80;99.90
3564;DHT22;1796;52.388;13.096;2022-12-10T15:16:29;-0.80;99.90
3564;DHT22;1796;52.388;13.096;2022-12-10T15:19:08;-0.80;99.90
3564;DHT22;1796;52.388;13.096;2022-12-10T15:21:41;-0.80;99.90
3564;DHT22;1796;52.388;13.096;2022-12-10T15:24:14;-0.90;99.90
3564;DHT22;1796;52.388;13.096;2022-12-10T15:26:43;-0.90;99.90
3564;DHT22;1796;52.388;13.096;2022-12-10T15:29:33;-1.00;99.90
3564;DHT22;1796;52.388;13.096;2022-12-10T15:32:04;-1.00;99.90
3564;DHT22;1796;52.388;13.096;2022-12-10T15:34:39;-1.00;99.90
3564;DHT22;1796;52.388;13.096;2022-12-10T15:37:19;-1.00;99.90
3564;DHT22;1796;52.388;13.096;2022-12-10T15:39:49;-1.00;99.90
3564;DHT22;1796;52.388;13.096;2022-12-10T15:42:37;-1.00;99.90
3564;DHT22;1796;52.388;13.096;2022-12-10T15:45:24;-1.00;99.90
3564;DHT22;1796;52.388;13.096;2022-12-10T15:47:54;-1.10;99.90
3564;DHT22;1796;52.388;13.096;2022-12-10T15:50:24;-1.10;99.90
3564;DHT22;1796;52.388;13.096;2022-12-10T15:52:51;-1.10;99.90
3564;DHT22;1796;52.388;13.096;2022-12-10T15:55:18;-1.10;99.90
3564;DHT22;1796;52.388;13.096;2022-12-10T15:57:45;-1.10;99.90
3564;DHT22;1796;52.388;13.096;2022-12-10T16:00:19;-1.00;99.90
3564;DHT22;1796;52.388;13.096;2022-12-10T16:02:52;-1.10;99.90
3564;DHT22;1796;52.388;13.096;2022-12-10T16:05:21;-1.10;99.90
3564;DHT22;1796;52.388;13.096;2022-12-10T16:07:51;-1.20;99.90
3564;DHT22;1796;52.388;13.096;2022-12-10T16:10:21;-1.20;99.90
3564;DHT22;1796;52.388;13.096;2022-12-10T16:12:50;-1.30;99.90
3564;DHT22;1796;52.388;13.096;2022-12-10T16:15:21;-1.30;99.90
3564;DHT22;1796;52.388;13.096;2022-12-10T16:17:50;-1.30;99.90
3564;DHT22;1796;52.388;13.096;2022-12-10T16:20:21;-1.30;99.90